createdAt,value
2019-02-11T00:00:31.521Z,2.25
2019-02-11T00:03:00.317Z,1.98
2019-02-11T00:05:29.116Z,3.08
2019-02-11T00:07:57.932Z,2.17
2019-02-11T00:10:26.697Z,4.10
2019-02-11T00:12:55.483Z,2.60
2019-02-11T00:15:24.270Z,3.25
2019-02-11T00:17:53.059Z,2.30
2019-02-11T00:20:21.829Z,2.95
2019-02-11T00:22:50.597Z,3.83
2019-02-11T00:25:19.573Z,3.83
2019-02-11T00:27:48.410Z,3.98
2019-02-11T00:30:17.176Z,2.22
2019-02-11T00:32:45.974Z,2.60
2019-02-11T00:35:14.802Z,4.42
2019-02-11T00:37:43.563Z,3.75
2019-02-11T00:40:12.323Z,2.67
2019-02-11T00:42:41.086Z,3.50
2019-02-11T00:45:09.861Z,2.60
2019-02-11T00:47:38.580Z,2.95
2019-02-11T00:50:10.289Z,3.77
2019-02-11T00:52:39.414Z,3.35
2019-02-11T00:55:08.346Z,7.70
2019-02-11T00:57:37.219Z,2.67
2019-02-11T01:00:09.129Z,2.90
2019-02-11T01:02:37.897Z,2.20
2019-02-11T01:05:07.210Z,2.12
2019-02-11T01:07:36.025Z,2.47
2019-02-11T01:10:07.669Z,2.30
2019-02-11T01:12:36.455Z,1.27
2019-02-11T01:15:08.185Z,1.87
2019-02-11T01:17:37.186Z,1.40
2019-02-11T01:20:08.762Z,1.40
2019-02-11T01:22:38.576Z,1.60
2019-02-11T01:25:08.387Z,1.55
2019-02-11T01:27:37.129Z,1.75
2019-02-11T01:30:11.299Z,1.80
2019-02-11T01:32:40.142Z,1.80
2019-02-11T01:35:08.941Z,1.32
2019-02-11T01:37:37.669Z,2.25
2019-02-11T01:40:10.554Z,1.10
2019-02-11T01:42:39.340Z,1.30
2019-02-11T01:45:10.651Z,0.80
2019-02-11T01:47:39.478Z,2.65
2019-02-11T01:50:11.013Z,1.30
2019-02-11T01:52:39.762Z,0.90
2019-02-11T01:55:08.524Z,0.90
2019-02-11T01:57:37.311Z,1.00
2019-02-11T02:00:11.460Z,1.00
2019-02-11T02:02:40.219Z,0.90
2019-02-11T02:05:09.680Z,0.90
2019-02-11T02:07:38.445Z,0.98
2019-02-11T02:10:12.670Z,1.30
2019-02-11T02:12:41.465Z,1.22
2019-02-11T02:15:13.203Z,1.30
2019-02-11T02:17:41.975Z,1.77
2019-02-11T02:20:13.269Z,1.10
2019-02-11T02:22:41.999Z,1.80
2019-02-11T02:25:11.998Z,1.60
2019-02-11T02:27:40.838Z,2.70
2019-02-11T02:30:14.287Z,1.40
2019-02-11T02:32:43.049Z,1.32
2019-02-11T02:35:11.776Z,0.90
2019-02-11T02:37:40.741Z,1.20
2019-02-11T02:40:10.409Z,1.30
2019-02-11T02:42:39.153Z,1.32
2019-02-11T02:45:09.550Z,1.30
2019-02-11T02:47:38.656Z,1.17
2019-02-11T02:50:09.387Z,0.95
2019-02-11T02:52:38.380Z,2.27
2019-02-11T02:55:08.401Z,1.00
2019-02-11T02:57:37.216Z,2.98
2019-02-11T03:00:11.286Z,1.90
2019-02-11T03:02:40.117Z,2.20
2019-02-11T03:05:09.598Z,1.50
2019-02-11T03:07:38.368Z,1.07
2019-02-11T03:10:09.518Z,1.57
2019-02-11T03:12:38.256Z,2.55
2019-02-11T03:15:09.992Z,1.30
2019-02-11T03:17:38.838Z,1.45
2019-02-11T03:20:10.667Z,1.02
2019-02-11T03:22:39.503Z,1.55
2019-02-11T03:25:09.190Z,1.27
2019-02-11T03:27:37.953Z,1.50
2019-02-11T03:30:10.442Z,1.05
2019-02-11T03:32:39.323Z,1.98
2019-02-11T03:35:08.298Z,1.95
2019-02-11T03:37:37.037Z,2.05
2019-02-11T03:40:08.151Z,3.05
2019-02-11T03:42:36.935Z,3.62
2019-02-11T03:45:11.109Z,1.45
2019-02-11T03:47:39.920Z,3.25
2019-02-11T03:50:10.538Z,6.67
2019-02-11T03:52:39.363Z,6.80
2019-02-11T03:55:08.639Z,4.83
2019-02-11T03:57:37.390Z,7.62
2019-02-11T04:00:09.248Z,8.03
2019-02-11T04:02:38.087Z,7.22
2019-02-11T04:05:07.787Z,13.45
2019-02-11T04:07:36.622Z,9.08
2019-02-11T04:10:08.610Z,10.00
2019-02-11T04:12:37.391Z,11.50
2019-02-11T04:15:07.959Z,11.53
2019-02-11T04:17:36.736Z,7.33
2019-02-11T04:20:07.726Z,11.03
2019-02-11T04:22:36.480Z,10.78
2019-02-11T04:25:06.441Z,14.25
2019-02-11T04:27:36.111Z,11.45
2019-02-11T04:30:07.562Z,11.18
2019-02-11T04:32:36.415Z,14.30
2019-02-11T04:35:06.397Z,11.18
2019-02-11T04:37:35.235Z,16.17
2019-02-11T04:40:06.495Z,9.03
2019-02-11T04:42:35.323Z,13.15
2019-02-11T04:45:05.421Z,11.43
2019-02-11T04:47:34.157Z,11.28
2019-02-11T04:50:03.106Z,8.18
2019-02-11T04:52:31.935Z,9.68
2019-02-11T04:55:00.695Z,13.22
2019-02-11T04:57:29.465Z,24.02
2019-02-11T04:59:58.230Z,14.80
2019-02-11T05:02:26.990Z,9.80
2019-02-11T05:04:55.732Z,19.20
2019-02-11T05:07:24.464Z,5.95
2019-02-11T05:09:53.256Z,7.50
2019-02-11T05:12:22.042Z,8.00
2019-02-11T05:14:50.825Z,7.22
2019-02-11T05:17:19.564Z,4.00
2019-02-11T05:19:48.322Z,11.05
2019-02-11T05:22:17.057Z,13.50
2019-02-11T05:24:45.900Z,3.60
2019-02-11T05:27:14.728Z,10.28
2019-02-11T05:29:43.527Z,9.80
2019-02-11T05:32:12.273Z,5.37
2019-02-11T05:34:41.011Z,8.30
2019-02-11T05:37:09.806Z,9.20
2019-02-11T05:39:38.537Z,3.77
2019-02-11T05:42:07.278Z,9.18
2019-02-11T05:44:36.017Z,6.60
2019-02-11T05:47:04.819Z,8.30
2019-02-11T05:49:33.548Z,7.28
2019-02-11T05:52:02.322Z,7.40
2019-02-11T05:54:31.136Z,6.17
2019-02-11T05:56:59.899Z,5.45
2019-02-11T05:59:28.749Z,8.70
2019-02-11T06:01:57.527Z,6.87
2019-02-11T06:04:26.371Z,14.33
2019-02-11T06:06:55.128Z,8.03
2019-02-11T06:09:23.887Z,7.22
2019-02-11T06:11:52.742Z,7.30
2019-02-11T06:14:21.485Z,9.53
2019-02-11T06:16:50.251Z,8.88
2019-02-11T06:19:19.018Z,4.25
2019-02-11T06:21:47.796Z,10.55
2019-02-11T06:24:16.562Z,17.82
2019-02-11T06:26:45.292Z,13.53
2019-02-11T06:29:14.042Z,10.58
2019-02-11T06:31:42.860Z,11.85
2019-02-11T06:34:11.680Z,13.13
2019-02-11T06:36:40.424Z,9.63
2019-02-11T06:39:09.156Z,7.10
2019-02-11T06:41:38.276Z,7.08
2019-02-11T06:44:07.050Z,5.12
2019-02-11T06:46:36.154Z,5.25
2019-02-11T06:49:04.921Z,6.92
2019-02-11T06:51:33.747Z,9.60
2019-02-11T06:54:02.555Z,7.33
2019-02-11T06:56:31.359Z,11.55
2019-02-11T06:59:00.135Z,10.28
2019-02-11T07:01:28.925Z,7.58
2019-02-11T07:03:57.736Z,12.98
2019-02-11T07:06:26.504Z,13.62
2019-02-11T07:08:55.270Z,9.63
2019-02-11T07:11:24.055Z,7.08
2019-02-11T07:13:52.819Z,7.08
2019-02-11T07:16:21.565Z,6.95
2019-02-11T07:18:50.312Z,12.37
2019-02-11T07:21:19.042Z,12.68
2019-02-11T07:23:47.813Z,15.38
2019-02-11T07:26:16.557Z,10.45
2019-02-11T07:28:45.336Z,5.90
2019-02-11T07:31:14.064Z,5.75
2019-02-11T07:34:01.877Z,6.58
2019-02-11T07:36:49.627Z,8.83
2019-02-11T07:39:37.441Z,4.97
2019-02-11T07:45:53.366Z,9.10
2019-02-11T07:48:41.166Z,8.98
2019-02-11T07:51:28.973Z,9.00
2019-02-11T07:54:16.825Z,11.53
2019-02-11T07:57:04.604Z,4.25
2019-02-11T08:02:46.350Z,5.17
2019-02-11T08:05:34.177Z,12.13
2019-02-11T08:08:21.970Z,7.83
2019-02-11T08:11:09.789Z,5.35
2019-02-11T08:13:57.642Z,3.80
2019-02-11T08:16:45.453Z,5.15
2019-02-11T08:19:33.213Z,6.12
2019-02-11T08:28:19.398Z,4.45
2019-02-11T08:30:55.688Z,8.13
2019-02-11T08:36:35.158Z,8.53
2019-02-11T08:42:19.040Z,7.28
2019-02-11T08:45:00.742Z,10.20
2019-02-11T09:02:36.801Z,6.92
2019-02-11T09:05:17.661Z,7.65
2019-02-11T09:49:49.090Z,7.65
2019-02-11T09:58:41.391Z,15.45
2019-02-11T10:04:34.769Z,14.43
2019-02-11T10:34:21.377Z,11.38
2019-02-11T11:54:43.013Z,21.17
2019-02-11T11:57:24.230Z,14.33
2019-02-11T12:03:05.556Z,9.38
2019-02-11T12:17:44.975Z,15.43
2019-02-11T12:20:23.810Z,18.90
2019-02-11T12:23:05.293Z,8.68
2019-02-11T12:31:47.296Z,13.90
2019-02-11T12:34:28.555Z,11.70
2019-02-11T13:30:41.041Z,7.58
2019-02-11T13:33:10.035Z,6.47
2019-02-11T13:35:38.934Z,7.95
2019-02-11T13:38:07.736Z,9.33
2019-02-11T13:40:36.558Z,8.15
2019-02-11T13:43:05.547Z,9.98
2019-02-11T13:45:34.482Z,4.97
2019-02-11T13:48:03.356Z,6.22
2019-02-11T13:50:32.242Z,10.05
2019-02-11T13:53:01.390Z,4.55
2019-02-11T13:55:31.642Z,10.38
2019-02-11T13:58:01.090Z,5.80
2019-02-11T14:00:34.408Z,9.13
2019-02-11T14:03:07.478Z,8.20
2019-02-11T14:05:36.390Z,6.70
2019-02-11T14:08:06.079Z,7.17
2019-02-11T14:10:35.239Z,7.72
2019-02-11T14:13:04.534Z,8.55
2019-02-11T14:15:33.327Z,6.60
2019-02-11T14:18:14.729Z,13.22
2019-02-11T14:20:42.045Z,9.73
2019-02-11T14:23:11.288Z,11.70
2019-02-11T14:25:44.936Z,9.23
2019-02-11T14:28:10.708Z,10.48
2019-02-11T14:30:39.561Z,8.00
2019-02-11T14:33:08.466Z,8.53
2019-02-11T14:35:37.469Z,6.12
2019-02-11T14:38:06.350Z,7.67
2019-02-11T14:40:35.164Z,5.70
2019-02-11T14:43:04.060Z,4.30
2019-02-11T14:45:32.901Z,3.22
2019-02-11T14:48:01.770Z,5.08
2019-02-11T14:50:30.862Z,4.05
2019-02-11T14:52:59.660Z,5.17
2019-02-11T14:55:28.753Z,5.60
2019-02-11T14:57:57.517Z,8.85
2019-02-11T15:00:26.326Z,3.25
2019-02-11T15:02:55.101Z,3.95
2019-02-11T15:05:23.890Z,2.80
2019-02-11T15:07:52.773Z,2.50
2019-02-11T15:10:21.651Z,3.47
2019-02-11T15:12:50.440Z,2.60
2019-02-11T15:15:19.175Z,4.70
2019-02-11T15:17:48.086Z,3.50
2019-02-11T15:20:17.319Z,4.95
2019-02-11T15:22:46.286Z,2.98
2019-02-11T15:25:16.876Z,2.10
2019-02-11T15:27:45.664Z,2.33
2019-02-11T15:30:18.604Z,1.92
2019-02-11T15:32:47.450Z,4.03
2019-02-11T15:35:16.237Z,6.70
2019-02-11T15:37:45.044Z,2.17
2019-02-11T15:40:21.800Z,2.55
2019-02-11T15:42:50.651Z,2.65
2019-02-11T15:45:19.448Z,1.95
2019-02-11T15:47:48.248Z,3.35
2019-02-11T15:50:18.114Z,4.03
2019-02-11T15:52:46.950Z,5.92
2019-02-11T15:55:20.096Z,2.52
2019-02-11T15:57:49.021Z,5.75
2019-02-11T16:00:23.058Z,3.58
2019-02-11T16:02:52.147Z,3.92
2019-02-11T16:05:21.182Z,4.90
2019-02-11T16:07:50.160Z,2.22
2019-02-11T16:10:21.808Z,7.35
2019-02-11T16:12:50.630Z,4.33
2019-02-11T16:15:19.461Z,2.58
2019-02-11T16:17:48.874Z,2.90
2019-02-11T16:20:17.669Z,2.42
2019-02-11T16:22:46.469Z,1.45
2019-02-11T16:25:15.979Z,2.87
2019-02-11T16:27:44.741Z,4.97
2019-02-11T16:30:16.397Z,2.83
2019-02-11T16:32:45.233Z,4.67
2019-02-11T16:35:15.820Z,3.37
2019-02-11T16:37:44.680Z,2.85
2019-02-11T16:40:19.104Z,1.75
2019-02-11T16:42:47.891Z,2.40
2019-02-11T16:45:16.669Z,1.90
2019-02-11T16:47:45.494Z,1.30
2019-02-11T16:50:14.442Z,2.50
2019-02-11T16:52:43.279Z,3.05
2019-02-11T16:55:12.585Z,1.98
2019-02-11T16:57:41.343Z,3.72
2019-02-11T17:00:13.172Z,2.65
2019-02-11T17:02:42.253Z,4.90
2019-02-11T17:05:14.681Z,6.60
2019-02-11T17:07:43.792Z,4.25
2019-02-11T17:10:14.124Z,11.22
2019-02-11T17:12:43.059Z,1.77
2019-02-11T17:15:17.399Z,3.20
2019-02-11T17:17:46.198Z,6.90
2019-02-11T17:20:16.326Z,3.52
2019-02-11T17:22:45.408Z,3.80
2019-02-11T17:25:14.790Z,2.00
2019-02-11T17:27:43.618Z,4.42
2019-02-11T17:30:18.069Z,3.55
2019-02-11T17:32:46.851Z,2.45
2019-02-11T17:35:15.677Z,4.20
2019-02-11T17:37:44.474Z,4.87
2019-02-11T17:40:16.145Z,2.02
2019-02-11T17:42:44.873Z,2.52
2019-02-11T17:45:22.447Z,1.95
2019-02-11T17:47:51.419Z,2.52
2019-02-11T17:50:20.183Z,8.55
2019-02-11T17:52:50.984Z,7.08
2019-02-11T17:55:20.063Z,2.92
2019-02-11T17:57:48.802Z,5.20
2019-02-11T18:00:31.043Z,2.85
2019-02-11T18:02:59.853Z,2.67
2019-02-11T18:05:28.633Z,2.75
2019-02-11T18:07:57.435Z,3.85
2019-02-11T18:10:26.209Z,2.15
2019-02-11T18:12:54.955Z,3.50
2019-02-11T18:15:24.001Z,2.12
2019-02-11T18:17:52.770Z,2.22
2019-02-11T18:20:21.619Z,2.45
2019-02-11T18:22:50.610Z,2.52
2019-02-11T18:25:19.358Z,4.95
2019-02-11T18:27:48.118Z,2.02
2019-02-11T18:30:17.328Z,3.47
2019-02-11T18:32:46.197Z,4.00
2019-02-11T18:35:17.271Z,3.35
2019-02-11T18:37:46.204Z,2.42
2019-02-11T18:40:15.734Z,3.02
2019-02-11T18:42:44.884Z,3.77
2019-02-11T18:45:17.972Z,3.33
2019-02-11T18:47:46.754Z,3.10
2019-02-11T18:50:16.152Z,3.47
2019-02-11T18:52:44.988Z,1.75
2019-02-11T18:55:21.729Z,3.92
2019-02-11T18:57:50.491Z,1.00
2019-02-11T19:00:19.968Z,4.30
2019-02-11T19:02:49.604Z,5.17
2019-02-11T19:05:18.600Z,3.10
2019-02-11T19:07:47.425Z,2.20
2019-02-11T19:10:19.620Z,4.28
2019-02-11T19:12:48.470Z,6.17
2019-02-11T19:15:19.416Z,5.83
2019-02-11T19:17:48.146Z,3.83
2019-02-11T19:20:17.569Z,5.30
2019-02-11T19:22:46.666Z,5.33
2019-02-11T19:25:15.874Z,3.65
2019-02-11T19:27:45.046Z,5.83
2019-02-11T19:30:20.911Z,2.87
2019-02-11T19:32:49.615Z,3.22
2019-02-11T19:35:37.703Z,3.33
2019-02-11T19:38:25.884Z,4.55
2019-02-11T19:41:13.781Z,4.65
2019-02-11T19:44:01.606Z,7.55
2019-02-11T19:46:49.386Z,3.35
2019-02-11T19:49:37.148Z,3.65
2019-02-11T19:52:24.963Z,2.87
2019-02-11T19:55:13.917Z,6.25
2019-02-11T19:58:01.846Z,3.90
2019-02-11T20:00:45.751Z,4.20
2019-02-11T20:15:37.055Z,5.85
2019-02-11T20:24:29.205Z,7.35
2019-02-11T20:27:10.713Z,8.15
2019-02-11T20:29:52.094Z,12.70
2019-02-11T20:47:28.096Z,11.70
2019-02-11T20:53:21.545Z,16.02
2019-02-11T20:58:50.528Z,12.30
2019-02-11T21:19:27.464Z,11.33
2019-02-11T21:22:15.299Z,20.00
2019-02-11T21:25:03.194Z,12.98
2019-02-11T21:27:50.998Z,9.50
2019-02-11T21:30:38.889Z,11.45
2019-02-11T21:57:26.299Z,11.78
2019-02-11T22:21:13.534Z,10.65
2019-02-11T23:08:41.892Z,3.72
2019-02-11T23:11:22.150Z,10.90
2019-02-11T23:14:00.533Z,15.68
2019-02-11T23:25:51.886Z,8.23
2019-02-11T23:37:32.699Z,5.08
2019-02-11T23:55:08.130Z,6.55
